Kezdőlap
METAR-TAF:

METAR-TAF

Repülőterek :

Polokwane, Dél-afrikai Köztársaság

földrajzi szélesség: 23-50-43S, földrajzi hosszúság: 29-27-31E, magasság: 1242 m

Jelenlegi meteorológiai megfigyelések

A jelentés 34 perccel ezelõtt készült, 23:00 UTC
Déli szél 1 kt
Hőmérséklet 11°C
Páratartalom 87%
Légköri nyomás 1023 hPa

METAR: FAPP 202300Z AUTO 17001KT //// // ////// 11/09 Q1023

Idő: 01:34 (23:34 UTC)

Előrejelzés

A jelentés 7 órával és 34 perccel ezelõtt készült, 16:00 UTC
Az előrejelzés 20-én 10 óra UTC és 20-én 18 óra UTC között érvényes
Északkeleti szél 8 kt
Látótávolság 10 km, vagy több
Kevés felhő 2000 lábon
Szakadozott felhőzet 8000 lábon

TAF: FAPP 201600Z 2010/2018 05008KT 9999 FEW020 BKN080 TX20/2013Z TN14/2018Z

Meteorológiai megfigyelések és előrejelzések több, mint 4000 repülőtéren (METAR és TAF jelentéseket).

A térképen piros és sárga pontok jelzik az elérhető meteorológiai állomásokat.

Mozgassa az egeret a pont fölött, hogy megjelenjen az állomás neve.

Azután kattintson az időjárási megfigyelések és előrejelzések megtekintéséhez.

A térkép megváltoztatása: kattintson a fekete keresztel jelölt zöld gombra ráközelítéshez, a vonallal jelölt zöld gombra távolításhoz, vagy a zöld nyilakra a szomszédos térképek eléréséhez.


METAR-TAF: